Terminal Aerodrome Forecast
Issued by NWS Twin Cities, MN

Home | Current Version | Previous Version | Graphics & Text | Print | Product List | Glossary On
Versions: 1 2 3 4 5 6 7 8 9 10 11 12 13 14 15 16 17 18 19 20 21 22 23 24 25 26 27 28 29
000
FTUS43 KMPX 250205 AAB
TAFMSP
TAF AMD
KMSP 250205Z 2502/2606 14009KT 1 1/2SM -SN BR BKN018 OVC025
     FM250600 15007KT 6SM BR OVC007
     FM251000 20009KT P6SM BKN009 OVC015
     FM251400 25014G22KT P6SM BKN025
     FM251700 28018G28KT P6SM BKN050=

USA.gov is the U.S. government's official web portal to all federal, state and local government web resources and services.